createdAt,value
2023-04-16T00:02:25.097Z,8.97
2023-04-16T00:04:52.080Z,8.07
2023-04-16T00:07:18.906Z,7.37
2023-04-16T00:09:46.668Z,6.80
2023-04-16T00:12:13.755Z,7.03
2023-04-16T00:14:40.606Z,6.90
2023-04-16T00:17:07.452Z,6.80
2023-04-16T00:19:34.213Z,7.33
2023-04-16T00:22:00.977Z,8.47
2023-04-16T00:24:27.945Z,7.50
2023-04-16T00:26:54.688Z,7.93
2023-04-16T00:29:22.161Z,7.67
2023-04-16T00:31:48.931Z,8.00
2023-04-16T00:34:16.600Z,6.80
2023-04-16T00:36:43.449Z,7.70
2023-04-16T00:39:10.448Z,6.40
2023-04-16T00:41:38.268Z,6.40
2023-04-16T00:44:05.087Z,6.90
2023-04-16T00:46:32.119Z,6.30
2023-04-16T00:49:00.857Z,6.33
2023-04-16T00:51:27.704Z,6.60
2023-04-16T00:53:54.763Z,6.47
2023-04-16T00:56:24.324Z,6.83
2023-04-16T00:58:51.305Z,6.15
2023-04-16T01:01:18.173Z,5.63
2023-04-16T01:03:48.140Z,6.73
2023-04-16T01:06:17.567Z,6.80
2023-04-16T01:08:45.139Z,6.80
2023-04-16T01:11:12.414Z,6.57
2023-04-16T01:13:39.894Z,6.33
2023-04-16T01:16:08.586Z,6.73
2023-04-16T01:18:36.834Z,6.27
2023-04-16T01:21:04.304Z,7.03
2023-04-16T01:23:31.458Z,6.67
2023-04-16T01:25:58.282Z,6.80
2023-04-16T01:28:25.092Z,6.77
2023-04-16T01:30:51.933Z,6.23
2023-04-16T01:33:19.249Z,6.33
2023-04-16T01:35:46.254Z,6.37
2023-04-16T01:38:12.975Z,7.27
2023-04-16T01:40:39.724Z,6.53
2023-04-16T01:43:06.456Z,6.13
2023-04-16T01:45:34.599Z,6.17
2023-04-16T01:48:01.603Z,6.87
2023-04-16T01:50:29.793Z,7.73
2023-04-16T01:52:56.654Z,7.30
2023-04-16T01:55:23.567Z,7.10
2023-04-16T01:57:55.714Z,7.10
2023-04-16T02:00:26.487Z,7.10
2023-04-16T02:02:53.731Z,8.03
2023-04-16T02:05:20.601Z,8.83
2023-04-16T02:07:47.328Z,8.60
2023-04-16T02:10:14.184Z,8.90
2023-04-16T02:12:40.847Z,8.67
2023-04-16T02:15:08.115Z,7.77
2023-04-16T02:21:06.744Z,8.07
2023-04-16T02:23:33.684Z,8.13
2023-04-16T02:26:01.397Z,6.83
2023-04-16T02:28:28.268Z,8.13
2023-04-16T02:30:54.979Z,9.33
2023-04-16T02:33:21.705Z,8.77
2023-04-16T02:35:48.964Z,9.00
2023-04-16T02:38:15.667Z,9.10
2023-04-16T02:40:42.363Z,8.93
2023-04-16T02:43:09.168Z,9.47
2023-04-16T02:45:35.812Z,9.83
2023-04-16T02:48:02.784Z,9.17
2023-04-16T02:50:29.619Z,9.17
2023-04-16T02:52:56.345Z,9.07
2023-04-16T02:55:23.082Z,9.10
2023-04-16T02:57:49.990Z,9.17
2023-04-16T03:00:16.888Z,8.50
2023-04-16T03:02:43.729Z,9.10
2023-04-16T03:05:12.141Z,9.43
2023-04-16T03:07:40.833Z,7.83
2023-04-16T03:10:08.258Z,8.83
2023-04-16T03:12:35.801Z,8.63
2023-04-16T03:15:02.661Z,8.63
2023-04-16T03:17:29.589Z,8.73
2023-04-16T03:19:56.450Z,9.77
2023-04-16T03:22:23.620Z,10.40
2023-04-16T03:24:50.486Z,10.43
2023-04-16T03:27:17.349Z,10.50
2023-04-16T03:29:44.063Z,10.87
2023-04-16T03:32:12.721Z,10.40
2023-04-16T03:34:39.667Z,10.73
2023-04-16T03:37:06.450Z,10.50
2023-04-16T03:39:34.378Z,10.70
2023-04-16T03:42:02.418Z,10.67
2023-04-16T03:44:30.080Z,11.50
2023-04-16T03:46:56.939Z,9.87
2023-04-16T03:49:23.746Z,10.67
2023-04-16T03:51:50.513Z,10.90
2023-04-16T03:54:17.370Z,10.70
2023-04-16T03:56:44.295Z,10.13
2023-04-16T03:59:11.238Z,10.93
2023-04-16T04:01:38.099Z,10.03
2023-04-16T04:04:05.140Z,11.30
2023-04-16T04:06:32.714Z,9.80
2023-04-16T04:09:01.463Z,10.57
2023-04-16T04:11:28.175Z,10.53
2023-04-16T04:13:54.879Z,10.50
2023-04-16T04:16:56.824Z,10.47
2023-04-16T04:19:23.556Z,9.83
2023-04-16T04:21:50.260Z,9.97
2023-04-16T04:24:16.941Z,8.93
2023-04-16T04:26:43.638Z,9.67
2023-04-16T04:29:10.621Z,10.37
2023-04-16T04:31:37.478Z,9.43
2023-04-16T04:34:04.270Z,9.67
2023-04-16T04:36:31.352Z,10.47
2023-04-16T04:38:58.076Z,9.83
2023-04-16T04:41:24.800Z,9.67
2023-04-16T04:43:51.737Z,10.07
2023-04-16T04:46:18.530Z,10.93
2023-04-16T04:48:45.390Z,10.17
2023-04-16T04:51:12.208Z,10.87
2023-04-16T04:53:38.905Z,9.87
2023-04-16T04:56:12.248Z,10.33
2023-04-16T04:58:39.433Z,11.47
2023-04-16T05:01:06.369Z,11.97
2023-04-16T05:03:33.168Z,12.17
2023-04-16T05:06:00.094Z,12.27
2023-04-16T05:08:27.240Z,12.40
2023-04-16T05:10:54.173Z,11.90
2023-04-16T05:13:20.810Z,11.73
2023-04-16T05:15:47.445Z,12.20
2023-04-16T05:18:14.138Z,11.47
2023-04-16T05:20:40.989Z,13.50
2023-04-16T05:23:07.809Z,12.07
2023-04-16T05:25:34.635Z,11.87
2023-04-16T05:28:01.314Z,16.80
2023-04-16T05:30:27.978Z,13.03
2023-04-16T05:32:54.821Z,12.33
2023-04-16T05:35:21.634Z,12.07
2023-04-16T05:37:48.290Z,11.40
2023-04-16T05:40:15.097Z,11.57
2023-04-16T05:42:41.810Z,10.87
2023-04-16T05:45:09.110Z,11.10
2023-04-16T05:47:35.764Z,11.97
2023-04-16T05:50:02.483Z,10.80
2023-04-16T05:52:29.170Z,11.77
2023-04-16T05:54:56.086Z,12.53
2023-04-16T05:57:22.789Z,11.37
2023-04-16T05:59:49.514Z,10.30
2023-04-16T06:02:22.255Z,10.93
2023-04-16T06:04:50.140Z,11.63
2023-04-16T06:07:16.868Z,10.67
2023-04-16T06:09:45.380Z,11.80
2023-04-16T06:12:12.161Z,11.27
2023-04-16T06:14:38.890Z,10.53
2023-04-16T06:17:05.696Z,11.57
2023-04-16T06:19:32.706Z,12.60
2023-04-16T06:21:59.628Z,13.27
2023-04-16T06:24:26.320Z,12.93
2023-04-16T06:26:54.851Z,14.77
2023-04-16T06:29:27.916Z,14.30
2023-04-16T06:32:00.335Z,14.53
2023-04-16T06:34:28.896Z,14.37
2023-04-16T06:36:55.878Z,14.60
2023-04-16T06:39:22.550Z,15.47
2023-04-16T06:41:49.505Z,15.83
2023-04-16T06:44:16.468Z,12.87
2023-04-16T06:46:43.237Z,11.57
2023-04-16T06:49:11.400Z,12.00
2023-04-16T06:51:38.359Z,12.50
2023-04-16T06:54:05.050Z,11.50
2023-04-16T06:56:32.655Z,10.77
2023-04-16T06:59:01.087Z,10.67
2023-04-16T07:01:28.852Z,9.97
2023-04-16T07:03:55.815Z,10.40
2023-04-16T07:06:22.792Z,11.37
2023-04-16T07:08:49.513Z,12.17
2023-04-16T07:11:16.569Z,11.60
2023-04-16T07:13:43.383Z,10.63
2023-04-16T07:16:10.073Z,10.33
2023-04-16T07:18:36.795Z,10.70
2023-04-16T07:21:04.307Z,10.40
2023-04-16T07:23:31.617Z,11.73
2023-04-16T07:25:58.311Z,12.80
2023-04-16T07:28:26.086Z,12.57
2023-04-16T07:30:52.864Z,10.57
2023-04-16T07:33:19.655Z,10.33
2023-04-16T07:35:46.391Z,10.00
2023-04-16T07:38:14.916Z,10.33
2023-04-16T07:40:41.883Z,9.63
2023-04-16T07:43:09.018Z,9.77
2023-04-16T07:45:35.923Z,10.00
2023-04-16T07:48:02.806Z,9.63
2023-04-16T07:50:29.557Z,9.17
2023-04-16T07:52:56.307Z,10.30
2023-04-16T07:55:23.037Z,10.43
2023-04-16T07:57:49.845Z,9.93
2023-04-16T08:00:16.763Z,10.30
2023-04-16T08:02:44.598Z,8.77
2023-04-16T08:05:12.700Z,11.07
2023-04-16T08:07:39.716Z,11.87
2023-04-16T08:10:06.947Z,10.27
2023-04-16T08:12:33.829Z,11.60
2023-04-16T08:15:00.550Z,12.67
2023-04-16T08:17:28.872Z,10.50
2023-04-16T08:19:55.641Z,10.83
2023-04-16T08:22:22.810Z,9.67
2023-04-16T08:24:49.568Z,8.90
2023-04-16T08:27:19.689Z,8.53
2023-04-16T08:29:48.574Z,9.80
2023-04-16T08:32:16.357Z,11.20
2023-04-16T08:34:43.433Z,16.50
2023-04-16T08:37:14.279Z,12.80
2023-04-16T08:39:41.474Z,11.70
2023-04-16T08:42:17.463Z,11.87
2023-04-16T08:44:49.965Z,13.37
2023-04-16T08:47:23.250Z,14.27
2023-04-16T08:49:50.629Z,12.10
2023-04-16T08:52:22.615Z,12.27
2023-04-16T08:55:15.015Z,11.27
2023-04-16T08:57:53.967Z,10.43
2023-04-16T09:00:22.130Z,11.10
2023-04-16T09:02:50.576Z,11.77
2023-04-16T09:05:18.360Z,11.40
2023-04-16T09:07:48.012Z,11.80
2023-04-16T09:10:15.792Z,9.45
2023-04-16T09:12:43.253Z,10.97
2023-04-16T09:15:11.823Z,11.23
2023-04-16T09:17:39.715Z,10.33
2023-04-16T09:20:11.329Z,9.87
2023-04-16T09:22:40.548Z,9.27
2023-04-16T09:25:07.923Z,8.45
2023-04-16T09:27:34.583Z,9.00
2023-04-16T09:30:01.523Z,6.80
2023-04-16T09:32:29.296Z,7.03
2023-04-16T09:35:01.411Z,6.10
2023-04-16T09:37:32.612Z,5.43
2023-04-16T09:40:04.193Z,5.63
2023-04-16T09:42:37.468Z,5.70
2023-04-16T09:45:05.947Z,5.23
2023-04-16T09:47:43.329Z,5.40
2023-04-16T09:50:16.463Z,5.53
2023-04-16T09:52:48.230Z,5.83
2023-04-16T09:55:14.956Z,5.30
2023-04-16T09:57:41.669Z,8.33
2023-04-16T10:00:13.968Z,5.07
2023-04-16T10:02:43.183Z,5.47
2023-04-16T10:05:14.721Z,4.85
2023-04-16T10:07:42.106Z,5.00
2023-04-16T10:10:09.970Z,4.70
2023-04-16T10:12:37.417Z,5.00
2023-04-16T10:15:05.499Z,4.93
2023-04-16T10:17:33.826Z,3.70
2023-04-16T10:20:02.679Z,3.30
2023-04-16T10:22:30.296Z,3.53
2023-04-16T10:24:59.055Z,3.50
2023-04-16T10:27:28.542Z,3.57
2023-04-16T10:29:55.684Z,3.80
2023-04-16T10:32:23.549Z,4.30
2023-04-16T10:34:50.407Z,4.57
2023-04-16T10:37:18.793Z,4.40
2023-04-16T10:39:45.518Z,4.93
2023-04-16T10:42:13.204Z,4.20
2023-04-16T10:44:45.427Z,5.00
2023-04-16T10:47:14.158Z,4.90
2023-04-16T10:49:42.655Z,4.77
2023-04-16T10:52:17.469Z,5.53
2023-04-16T10:54:44.562Z,4.53
2023-04-16T10:57:19.867Z,4.30
2023-04-16T10:59:49.336Z,4.07
2023-04-16T11:02:19.854Z,2.90
2023-04-16T11:04:49.996Z,3.20
2023-04-16T11:07:21.870Z,5.23
2023-04-16T11:10:02.602Z,3.63
2023-04-16T11:12:29.416Z,4.80
2023-04-16T11:15:03.017Z,4.73
2023-04-16T11:17:36.629Z,4.23
2023-04-16T11:20:05.411Z,3.97
2023-04-16T11:22:48.324Z,4.13
2023-04-16T11:25:21.538Z,3.83
2023-04-16T11:27:48.590Z,4.07
2023-04-16T11:30:15.632Z,3.80
2023-04-16T11:32:44.575Z,3.87
2023-04-16T11:35:17.264Z,3.77
2023-04-16T11:37:47.077Z,4.00
2023-04-16T11:40:17.277Z,3.60
2023-04-16T11:42:44.688Z,3.57
2023-04-16T11:45:12.724Z,3.90
2023-04-16T11:47:55.523Z,3.93
2023-04-16T11:50:27.762Z,3.57
2023-04-16T11:53:04.818Z,3.80
2023-04-16T11:55:31.632Z,3.57
2023-04-16T11:58:11.284Z,3.90
2023-04-16T12:00:37.977Z,3.15
2023-04-16T12:03:04.923Z,3.30
2023-04-16T12:05:37.382Z,3.20
2023-04-16T12:08:09.705Z,3.60
2023-04-16T12:10:58.509Z,3.50
2023-04-16T12:13:25.311Z,3.90
2023-04-16T12:15:53.866Z,3.60
2023-04-16T12:18:26.355Z,3.37
2023-04-16T12:20:53.305Z,3.50
2023-04-16T12:23:31.495Z,3.33
2023-04-16T12:26:02.967Z,2.90
2023-04-16T12:28:35.167Z,3.37
2023-04-16T12:31:04.037Z,3.50
2023-04-16T12:33:31.455Z,3.27
2023-04-16T12:35:58.317Z,3.50
2023-04-16T12:38:26.434Z,4.43
2023-04-16T12:40:57.101Z,3.40
2023-04-16T12:43:24.379Z,2.80
2023-04-16T12:45:51.252Z,2.70
2023-04-16T12:48:18.995Z,2.80
2023-04-16T12:50:46.405Z,2.97
2023-04-16T12:53:13.205Z,2.80
2023-04-16T12:55:40.044Z,3.10
2023-04-16T12:58:06.993Z,3.10
2023-04-16T13:00:33.731Z,3.03
2023-04-16T13:03:00.633Z,3.30
2023-04-16T13:05:27.597Z,3.10
2023-04-16T13:07:54.343Z,2.87
2023-04-16T13:10:22.249Z,2.50
2023-04-16T13:12:49.260Z,3.03
2023-04-16T13:15:16.113Z,2.90
2023-04-16T13:17:42.877Z,3.00
2023-04-16T13:20:10.343Z,3.30
2023-04-16T13:22:37.210Z,3.70
2023-04-16T13:25:04.149Z,3.60
2023-04-16T13:27:32.284Z,3.40
2023-04-16T13:29:59.142Z,3.17
2023-04-16T13:32:25.910Z,3.37
2023-04-16T13:34:52.719Z,3.70
2023-04-16T13:37:19.387Z,3.27
2023-04-16T13:39:46.167Z,3.03
2023-04-16T13:42:12.874Z,3.57
2023-04-16T13:44:39.667Z,3.40
2023-04-16T13:47:06.599Z,7.27
2023-04-16T13:49:36.007Z,3.37
2023-04-16T13:52:03.338Z,3.33
2023-04-16T13:54:30.030Z,3.10
2023-04-16T13:56:57.054Z,3.83
2023-04-16T13:59:23.749Z,3.60
2023-04-16T14:01:51.253Z,3.17
2023-04-16T14:04:17.996Z,3.20
2023-04-16T14:06:45.056Z,3.13
2023-04-16T14:09:12.022Z,3.13
2023-04-16T14:11:38.958Z,3.60
2023-04-16T14:14:05.721Z,3.80
2023-04-16T14:16:32.595Z,3.80
2023-04-16T14:18:59.322Z,4.13
2023-04-16T14:21:27.301Z,4.03
2023-04-16T14:23:54.103Z,4.00
2023-04-16T14:26:20.950Z,4.00
2023-04-16T14:28:47.936Z,4.00
2023-04-16T14:31:14.727Z,4.03
2023-04-16T14:33:41.419Z,4.00
2023-04-16T14:36:08.571Z,4.10
2023-04-16T14:38:35.365Z,3.63
2023-04-16T14:41:02.098Z,4.00
2023-04-16T14:43:28.784Z,3.93
2023-04-16T14:45:57.358Z,3.87
2023-04-16T14:48:24.125Z,4.00
2023-04-16T14:50:51.117Z,3.97
2023-04-16T14:53:17.932Z,3.63
2023-04-16T14:55:44.710Z,3.80
2023-04-16T14:58:11.487Z,4.30
2023-04-16T15:00:38.311Z,3.93
2023-04-16T15:03:05.944Z,4.33
2023-04-16T15:05:33.032Z,4.20
2023-04-16T15:08:00.762Z,3.93
2023-04-16T15:10:27.727Z,3.90
2023-04-16T15:12:54.507Z,3.83
2023-04-16T15:15:21.374Z,3.83
2023-04-16T15:17:48.400Z,4.10
2023-04-16T15:20:15.478Z,4.37
2023-04-16T15:22:42.315Z,3.73
2023-04-16T15:25:11.226Z,3.93
2023-04-16T15:27:37.996Z,4.20
2023-04-16T15:30:05.329Z,4.30
2023-04-16T15:32:32.156Z,4.30
2023-04-16T15:35:00.038Z,4.40
2023-04-16T15:37:26.858Z,4.73
2023-04-16T15:39:53.646Z,4.40
2023-04-16T15:42:20.474Z,4.20
2023-04-16T15:44:48.183Z,3.90
2023-04-16T15:47:15.010Z,4.37
2023-04-16T15:49:42.574Z,4.03
2023-04-16T15:52:09.839Z,4.20
2023-04-16T15:54:39.612Z,4.15
2023-04-16T15:57:06.687Z,4.03
2023-04-16T15:59:33.462Z,4.27
2023-04-16T16:02:00.431Z,4.40
2023-04-16T16:04:28.332Z,4.53
2023-04-16T16:06:55.881Z,4.37
2023-04-16T16:09:26.485Z,4.93
2023-04-16T16:11:54.580Z,4.30
2023-04-16T16:14:22.651Z,4.63
2023-04-16T16:16:49.517Z,4.77
2023-04-16T16:19:18.741Z,4.77
2023-04-16T16:21:45.650Z,4.33
2023-04-16T16:24:12.454Z,4.43
2023-04-16T16:26:39.158Z,4.90
2023-04-16T16:29:06.039Z,4.27
2023-04-16T16:31:32.820Z,5.07
2023-04-16T16:33:59.605Z,4.90
2023-04-16T16:36:26.747Z,5.10
2023-04-16T16:38:53.589Z,4.87
2023-04-16T16:41:20.745Z,4.70
2023-04-16T16:43:47.487Z,5.10
2023-04-16T16:46:14.155Z,4.50
2023-04-16T16:48:41.098Z,4.90
2023-04-16T16:51:10.867Z,4.60
2023-04-16T16:53:37.715Z,4.80
2023-04-16T16:56:04.612Z,4.50
2023-04-16T16:58:31.744Z,4.90
2023-04-16T17:00:58.951Z,4.80
2023-04-16T17:03:25.916Z,4.80
2023-04-16T17:05:52.793Z,4.73
2023-04-16T17:08:19.536Z,5.00
2023-04-16T17:10:46.268Z,4.70
2023-04-16T17:13:17.676Z,5.00
2023-04-16T17:15:44.491Z,4.80
2023-04-16T17:18:11.208Z,5.10
2023-04-16T17:20:38.161Z,4.80
2023-04-16T17:23:04.865Z,4.90
2023-04-16T17:25:31.683Z,5.10
2023-04-16T17:27:58.455Z,5.70
2023-04-16T17:30:27.499Z,5.30
2023-04-16T17:32:54.286Z,5.23
2023-04-16T17:35:24.955Z,5.40
2023-04-16T17:37:51.927Z,5.50
2023-04-16T17:40:18.797Z,4.70
2023-04-16T17:42:45.886Z,5.17
2023-04-16T17:45:12.791Z,5.60
2023-04-16T17:47:39.622Z,5.30
2023-04-16T17:50:07.418Z,5.17
2023-04-16T17:52:34.115Z,4.93
2023-04-16T17:55:01.882Z,5.47
2023-04-16T17:57:28.782Z,4.90
2023-04-16T17:59:55.655Z,5.63
2023-04-16T18:02:22.923Z,5.17
2023-04-16T18:04:50.030Z,6.20
2023-04-16T18:07:16.956Z,6.03
2023-04-16T18:09:43.719Z,5.87
2023-04-16T18:12:10.550Z,7.00
2023-04-16T18:14:38.972Z,7.33
2023-04-16T18:17:06.788Z,7.00
2023-04-16T18:19:33.662Z,7.10
2023-04-16T18:22:00.812Z,6.67
2023-04-16T18:24:27.605Z,6.53
2023-04-16T18:26:55.301Z,6.17
2023-04-16T18:29:25.073Z,5.57
2023-04-16T18:31:52.389Z,5.72
2023-04-16T18:34:19.480Z,5.30
2023-04-16T18:36:46.366Z,5.27
2023-04-16T18:39:13.156Z,6.07
2023-04-16T18:41:40.907Z,6.83
2023-04-16T18:44:07.802Z,6.47
2023-04-16T18:46:34.525Z,5.70
2023-04-16T18:49:01.634Z,7.07
2023-04-16T18:51:28.501Z,10.13
2023-04-16T18:53:55.407Z,6.83
2023-04-16T18:56:22.086Z,7.10
2023-04-16T18:58:49.475Z,6.40
2023-04-16T19:01:16.862Z,6.53
2023-04-16T19:03:45.634Z,6.60
2023-04-16T19:06:12.467Z,6.50
2023-04-16T19:08:39.199Z,7.67
2023-04-16T19:11:06.093Z,9.17
2023-04-16T19:13:32.876Z,7.93
2023-04-16T19:16:01.239Z,7.60
2023-04-16T19:18:28.106Z,7.40
2023-04-16T19:21:01.605Z,8.63
2023-04-16T19:23:29.513Z,7.90
2023-04-16T19:25:57.200Z,7.43
2023-04-16T19:28:27.476Z,7.27
2023-04-16T19:33:21.364Z,6.80
2023-04-16T19:35:48.211Z,7.10
2023-04-16T19:38:15.069Z,6.73
2023-04-16T19:40:46.859Z,6.40
2023-04-16T19:43:13.851Z,6.00
2023-04-16T19:45:44.910Z,5.93
2023-04-16T19:48:14.701Z,5.97
2023-04-16T19:50:43.028Z,11.93
2023-04-16T19:53:11.168Z,5.83
2023-04-16T19:55:41.859Z,5.73
2023-04-16T19:58:09.063Z,8.77
2023-04-16T20:00:41.165Z,8.23
2023-04-16T20:03:08.250Z,8.87
2023-04-16T20:05:35.762Z,8.90
2023-04-16T20:08:02.455Z,8.10
2023-04-16T20:10:31.749Z,8.67
2023-04-16T20:12:58.629Z,7.28
2023-04-16T20:15:25.701Z,6.77
2023-04-16T20:17:52.745Z,6.70
2023-04-16T20:20:19.607Z,7.17
2023-04-16T20:22:48.520Z,6.40
2023-04-16T20:25:19.249Z,7.97
2023-04-16T20:27:46.377Z,8.20
2023-04-16T20:30:14.371Z,8.97
2023-04-16T20:32:42.529Z,9.93
2023-04-16T20:35:11.644Z,9.67
2023-04-16T20:37:38.796Z,9.60
2023-04-16T20:40:08.928Z,9.83
2023-04-16T20:42:35.851Z,9.50
2023-04-16T20:45:03.726Z,9.60
2023-04-16T20:47:30.677Z,9.73
2023-04-16T20:49:58.345Z,9.77
2023-04-16T20:52:25.095Z,10.60
2023-04-16T20:54:52.493Z,9.43
2023-04-16T20:57:19.404Z,8.57
2023-04-16T20:59:46.191Z,8.47
2023-04-16T21:02:13.249Z,8.03
2023-04-16T21:04:40.278Z,7.83
2023-04-16T21:07:08.328Z,9.43
2023-04-16T21:09:35.026Z,9.20
2023-04-16T21:12:02.130Z,9.90
2023-04-16T21:14:28.837Z,10.20
2023-04-16T21:16:55.778Z,9.03
2023-04-16T21:19:22.695Z,9.30
2023-04-16T21:21:49.546Z,8.07
2023-04-16T21:24:16.351Z,8.00
2023-04-16T21:26:43.078Z,7.70
2023-04-16T21:29:09.908Z,7.23
2023-04-16T21:31:36.894Z,7.20
2023-04-16T21:34:03.645Z,7.83
2023-04-16T21:36:32.270Z,7.43
2023-04-16T21:38:59.095Z,7.93
2023-04-16T21:41:25.968Z,7.43
2023-04-16T21:43:52.660Z,7.47
2023-04-16T21:46:19.533Z,7.80
2023-04-16T21:48:48.541Z,7.50
2023-04-16T21:51:15.927Z,7.47
2023-04-16T21:53:42.853Z,7.83
2023-04-16T21:56:10.568Z,7.90
2023-04-16T21:58:37.366Z,8.03
2023-04-16T22:01:04.069Z,7.60
2023-04-16T22:03:31.247Z,7.80
2023-04-16T22:06:01.766Z,8.17
2023-04-16T22:08:29.855Z,8.13
2023-04-16T22:11:01.852Z,7.60
2023-04-16T22:13:33.227Z,7.30
2023-04-16T22:16:02.927Z,6.80
2023-04-16T22:18:33.248Z,8.30
2023-04-16T22:23:27.944Z,6.93
2023-04-16T22:25:56.138Z,7.03
2023-04-16T22:28:23.708Z,7.93
2023-04-16T22:30:50.624Z,7.73
2023-04-16T22:33:17.589Z,7.07
2023-04-16T22:35:44.471Z,6.80
2023-04-16T22:38:11.489Z,6.87
2023-04-16T22:40:38.265Z,6.77
2023-04-16T22:43:05.477Z,6.73
2023-04-16T22:45:32.322Z,7.43
2023-04-16T22:47:59.287Z,8.10
2023-04-16T22:50:26.052Z,7.97
2023-04-16T22:52:52.793Z,7.70
2023-04-16T22:55:19.616Z,7.00
2023-04-16T22:57:47.684Z,7.20
2023-04-16T23:00:18.055Z,7.50
2023-04-16T23:05:12.515Z,7.30
2023-04-16T23:07:39.328Z,6.73
2023-04-16T23:10:08.745Z,6.67
2023-04-16T23:12:37.625Z,6.25
2023-04-16T23:15:06.604Z,6.00
2023-04-16T23:17:34.102Z,5.80
2023-04-16T23:20:00.880Z,5.73
2023-04-16T23:22:27.744Z,5.73
2023-04-16T23:24:54.638Z,5.73
2023-04-16T23:27:21.393Z,6.60
2023-04-16T23:29:48.021Z,6.60
2023-04-16T23:32:14.720Z,6.07
2023-04-16T23:34:42.337Z,5.73
2023-04-16T23:37:09.081Z,6.83
2023-04-16T23:39:37.199Z,5.07
2023-04-16T23:42:04.188Z,5.40
2023-04-16T23:44:30.871Z,6.13
2023-04-16T23:46:57.618Z,5.53
2023-04-16T23:49:24.666Z,5.53
2023-04-16T23:51:51.502Z,5.60
2023-04-16T23:54:19.395Z,5.60
2023-04-16T23:56:46.817Z,5.77
2023-04-16T23:59:14.076Z,5.40
